createdAt,value
2022-11-21T00:00:18.117Z,51.03
2022-11-21T00:10:19.620Z,50.92
2022-11-21T00:20:21.651Z,51.15
2022-11-21T00:30:23.163Z,50.61
2022-11-21T00:40:24.687Z,50.42
2022-11-21T00:50:26.058Z,49.96
2022-11-21T01:00:27.586Z,50.49
2022-11-21T01:10:29.186Z,50.93
2022-11-21T01:20:30.593Z,51.34
2022-11-21T01:30:32.023Z,51.19
2022-11-21T01:40:40.700Z,51.23
2022-11-21T01:50:42.147Z,51.03
2022-11-21T02:00:43.584Z,51.78
2022-11-21T02:10:54.327Z,51.62
2022-11-21T02:21:28.420Z,51.57
2022-11-21T02:31:29.880Z,51.50
2022-11-21T02:41:31.270Z,51.37
2022-11-21T02:51:32.785Z,51.36
2022-11-21T03:01:34.163Z,50.92
2022-11-21T03:11:35.616Z,50.63
2022-11-21T03:21:37.014Z,50.62
2022-11-21T03:31:38.423Z,50.82
2022-11-21T03:41:39.811Z,51.19
2022-11-21T03:51:41.508Z,51.19
2022-11-21T04:01:43.116Z,50.99
2022-11-21T04:11:44.805Z,51.37
2022-11-21T04:21:46.348Z,51.26
2022-11-21T04:31:47.781Z,51.43
2022-11-21T04:41:49.531Z,51.75
2022-11-21T04:51:52.180Z,51.56
2022-11-21T05:01:53.774Z,51.62
2022-11-21T05:12:13.735Z,51.58
2022-11-21T05:22:15.292Z,51.71
2022-11-21T05:32:16.660Z,51.28
2022-11-21T05:42:38.007Z,51.44
2022-11-21T05:52:39.378Z,50.67
2022-11-21T06:03:03.832Z,50.60
2022-11-21T06:13:21.790Z,50.25
2022-11-21T06:23:23.186Z,50.04
2022-11-21T06:33:24.572Z,50.17
2022-11-21T06:43:25.969Z,49.96
2022-11-21T06:53:27.496Z,50.28
2022-11-21T07:03:28.930Z,50.01
2022-11-21T07:13:30.319Z,50.09
2022-11-21T07:23:31.991Z,50.12
2022-11-21T07:33:33.357Z,50.19
2022-11-21T07:43:34.732Z,50.05
2022-11-21T07:53:36.131Z,50.50
2022-11-21T08:03:37.526Z,50.33
2022-11-21T08:13:38.908Z,50.25
2022-11-21T08:23:40.290Z,49.90
2022-11-21T08:33:41.647Z,50.05
2022-11-21T08:43:43.129Z,49.98
2022-11-21T08:53:44.582Z,49.96
2022-11-21T09:03:46.040Z,49.88
2022-11-21T09:14:07.494Z,49.77
2022-11-21T09:24:08.909Z,49.53
2022-11-21T09:34:10.308Z,49.64
2022-11-21T09:44:44.302Z,49.69
2022-11-21T09:54:51.079Z,49.70
2022-11-21T10:04:52.503Z,49.52
2022-11-21T10:15:20.120Z,49.12
2022-11-21T10:25:27.185Z,49.29
2022-11-21T10:35:39.817Z,49.22
2022-11-21T10:45:41.840Z,49.27
2022-11-21T10:55:56.039Z,49.52
2022-11-21T11:05:58.157Z,49.65
2022-11-21T11:16:11.655Z,49.14
2022-11-21T11:26:27.558Z,49.18
2022-11-21T11:36:44.439Z,48.47
2022-11-21T11:47:14.045Z,49.17
2022-11-21T11:57:15.429Z,47.47
2022-11-21T12:18:04.378Z,47.36
2022-11-21T12:28:10.021Z,47.93
2022-11-21T12:38:35.023Z,46.49
2022-11-21T12:48:55.091Z,46.59
2022-11-21T12:58:56.474Z,46.91
2022-11-21T13:08:58.931Z,45.12
2022-11-21T13:19:00.316Z,45.04
2022-11-21T13:29:08.962Z,45.14
2022-11-21T13:39:30.777Z,44.64
2022-11-21T13:49:34.643Z,44.25
2022-11-21T13:59:52.164Z,44.43
2022-11-21T14:09:55.336Z,44.33
2022-11-21T14:19:57.664Z,43.75
2022-11-21T14:30:01.567Z,43.22
2022-11-21T14:40:04.238Z,43.03
2022-11-21T14:50:07.559Z,43.86
2022-11-21T15:00:24.587Z,43.79
2022-11-21T15:10:33.870Z,44.25
2022-11-21T15:20:35.625Z,44.93
2022-11-21T15:30:45.258Z,45.15
2022-11-21T15:41:00.100Z,45.39
2022-11-21T15:51:01.660Z,45.29
2022-11-21T16:01:03.151Z,45.33
2022-11-21T16:11:04.718Z,45.58
2022-11-21T16:21:07.127Z,46.08
2022-11-21T16:31:20.583Z,45.99
2022-11-21T16:41:22.578Z,46.38
2022-11-21T16:51:23.954Z,46.71
2022-11-21T17:01:26.209Z,46.72
2022-11-21T17:11:29.333Z,46.92
2022-11-21T17:21:31.230Z,46.66
2022-11-21T17:31:32.715Z,46.78
2022-11-21T17:41:34.228Z,46.90
2022-11-21T17:51:37.646Z,46.66
2022-11-21T18:01:39.192Z,47.31
2022-11-21T18:11:40.953Z,46.90
2022-11-21T18:21:42.384Z,47.09
2022-11-21T18:31:43.992Z,47.00
2022-11-21T18:41:45.471Z,47.25
2022-11-21T18:51:48.342Z,47.58
2022-11-21T19:01:50.153Z,47.33
2022-11-21T19:11:51.743Z,47.83
2022-11-21T19:21:53.566Z,48.00
2022-11-21T19:31:55.834Z,48.05
2022-11-21T19:41:57.241Z,48.09
2022-11-21T19:51:58.635Z,48.07
2022-11-21T20:02:01.061Z,48.58
2022-11-21T20:12:03.258Z,48.73
2022-11-21T20:22:04.680Z,48.65
2022-11-21T20:32:06.072Z,48.93
2022-11-21T20:42:08.277Z,49.09
2022-11-21T20:53:43.939Z,48.82
2022-11-21T21:02:31.218Z,48.65
2022-11-21T21:12:32.890Z,48.75
2022-11-21T21:22:34.589Z,48.60
2022-11-21T21:32:36.053Z,48.44
2022-11-21T21:42:37.891Z,48.48
2022-11-21T21:52:39.460Z,49.01
2022-11-21T22:02:41.150Z,47.71
2022-11-21T22:12:44.220Z,47.95
2022-11-21T22:22:45.860Z,48.13
2022-11-21T22:32:47.270Z,48.44
2022-11-21T22:42:48.759Z,48.63
2022-11-21T22:52:50.205Z,48.56
2022-11-21T23:02:51.878Z,48.78
2022-11-21T23:12:53.352Z,49.31
2022-11-21T23:22:56.554Z,49.62
2022-11-21T23:32:58.124Z,49.84
2022-11-21T23:42:59.660Z,50.59
2022-11-21T23:53:01.290Z,51.08
